DGANA EDDS-EDTQ
Flight info
| Callsign | DGANA |
|---|---|
| Flight time | 0h 6m |
| Altitude | |
| Route | |
| Aircraft | P68 |
Departure
| Time | 2026-05-05 19:28 |
|---|---|
| Airport | Stuttgart Airport (EDDS) |
Arrival
| Time | 2026-05-05 19:34 |
|---|---|
| Airport | Pattonville Airfield (EDTQ) |
| Time | Latitude | Longitude | Altitude | Speed | Heading |
|---|---|---|---|---|---|
| 2026-05-05 19:27 | 48.70737 | 9.18197 | 2416 ft | 125 kts | 2° |
| 2026-05-05 19:28 | 48.71569 | 9.18593 | 2424 ft | 126 kts | 20° |
| 2026-05-05 19:28 | 48.72375 | 9.19130 | 2451 ft | 126 kts | 20° |
| 2026-05-05 19:28 | 48.73167 | 9.19612 | 2474 ft | 123 kts | 10° |
| 2026-05-05 19:28 | 48.74008 | 9.19791 | 2489 ft | 122 kts | 358° |
| 2026-05-05 19:29 | 48.74852 | 9.19814 | 2487 ft | 122 kts | 355° |
| 2026-05-05 19:29 | 48.75703 | 9.19807 | 2448 ft | 124 kts | 354° |
| 2026-05-05 19:29 | 48.76574 | 9.19747 | 2442 ft | 125 kts | 352° |
| 2026-05-05 19:29 | 48.77449 | 9.19683 | 2400 ft | 129 kts | 356° |
| 2026-05-05 19:30 | 48.78335 | 9.19909 | 2374 ft | 130 kts | 17° |
| 2026-05-05 19:30 | 48.79090 | 9.20622 | 2432 ft | 127 kts | 40° |
| 2026-05-05 19:30 | 48.79681 | 9.21620 | 2442 ft | 128 kts | 51° |
| 2026-05-05 19:30 | 48.80235 | 9.22687 | 2404 ft | 129 kts | 51° |
| 2026-05-05 19:31 | 48.80798 | 9.23737 | 2389 ft | 126 kts | 50° |
| 2026-05-05 19:31 | 48.81368 | 9.24740 | 2330 ft | 124 kts | 46° |
| 2026-05-05 19:31 | 48.81954 | 9.25703 | 2202 ft | 123 kts | 46° |
| 2026-05-05 19:31 | 48.82532 | 9.26636 | 2118 ft | 123 kts | 45° |
| 2026-05-05 19:32 | 48.83184 | 9.27455 | 2146 ft | 118 kts | 25° |
| 2026-05-05 19:32 | 48.83965 | 9.27686 | 2088 ft | 116 kts | 352° |
| 2026-05-05 19:32 | 48.84690 | 9.27284 | 2021 ft | 105 kts | 321° |
| 2026-05-05 19:32 | 48.85141 | 9.26534 | 1825 ft | 89 kts | 301° |
| 2026-05-05 19:33 | 48.85450 | 9.25711 | 1600 ft | 90 kts | 292° |
| 2026-05-05 19:33 | 48.85719 | 9.24885 | 1407 ft | 85 kts | 300° |
| 2026-05-05 19:33 | 48.86081 | 9.24188 | 1238 ft | 81 kts | 305° |
| 2026-05-05 19:33 | 48.86273 | 9.23383 | 1015 ft | 82 kts | 282° |
| 2026-05-05 19:34 | 48.86399 | 9.22608 | 916 ft | 56 kts | 283° |
| 2026-05-05 19:34 | 48.86447 | 9.22296 | 928 ft | 11 kts | 284° |
| 2026-05-05 19:34 | 48.86458 | 9.22234 | 932 ft | 3 kts | 284° |
| 2026-05-05 19:35 | 48.86474 | 9.22171 | 935 ft | 0 kts | 223° |
| 2026-05-05 19:35 | 48.86459 | 9.22173 | 933 ft | 7 kts | 126° |
| 2026-05-05 19:35 | 48.86446 | 9.22305 | 927 ft | 18 kts | 107° |
| 2026-05-05 19:35 | 48.86406 | 9.22561 | 922 ft | 29 kts | 103° |
| 2026-05-05 19:36 | 48.86360 | 9.22859 | 906 ft | 18 kts | 104° |
| 2026-05-05 19:36 | 48.86344 | 9.22957 | 906 ft | 9 kts | 103° |
| 2026-05-05 19:36 | 48.86294 | 9.22969 | 904 ft | 13 kts | 189° |
| 2026-05-05 19:36 | 48.86207 | 9.22942 | 902 ft | 12 kts | 185° |
| 2026-05-05 19:37 | 48.86181 | 9.22900 | 901 ft | 6 kts | 267° |
| 2026-05-05 19:37 | 48.86181 | 9.22877 | 900 ft | 0 kts | 276° |